createdAt,value
2018-11-13T07:42:39.054Z,989.782
2018-11-13T07:42:55.406Z,989.771
2018-11-13T07:43:11.768Z,989.771
2018-11-13T07:43:28.156Z,989.808
2018-11-13T07:43:44.590Z,989.771
2018-11-13T07:44:00.961Z,989.813
2018-11-13T07:44:17.347Z,989.812
2018-11-13T07:44:33.710Z,989.838
2018-11-13T07:44:50.092Z,989.877
2018-11-13T07:45:06.482Z,989.796
2018-11-13T07:45:22.868Z,989.847
2018-11-13T07:45:39.261Z,989.832
2018-11-13T07:45:55.615Z,989.759
2018-11-13T07:46:11.959Z,989.782
2018-11-13T07:46:28.428Z,989.769
2018-11-13T07:46:45.269Z,989.783
2018-11-13T07:47:02.592Z,989.793
2018-11-13T07:47:19.503Z,989.745
2018-11-13T07:47:38.245Z,989.749
2018-11-13T07:47:56.715Z,989.758
2018-11-13T07:48:13.689Z,989.736
2018-11-13T07:48:30.064Z,989.763
2018-11-13T07:48:46.439Z,989.728
2018-11-13T07:49:02.828Z,989.847
2018-11-13T07:49:19.201Z,989.799
2018-11-13T07:49:35.554Z,989.789
2018-11-13T07:49:51.915Z,989.823
2018-11-13T07:50:08.271Z,989.849
2018-11-13T07:50:24.681Z,989.835
2018-11-13T07:50:41.031Z,989.878
2018-11-13T07:50:57.543Z,989.856
2018-11-13T07:51:14.418Z,989.886
2018-11-13T07:51:31.287Z,989.925
2018-11-13T07:51:47.652Z,989.88
2018-11-13T07:52:04.039Z,989.941
2018-11-13T07:52:20.459Z,989.932
2018-11-13T07:52:36.843Z,989.94
2018-11-13T07:52:53.488Z,989.94
2018-11-13T07:53:09.877Z,989.957
2018-11-13T07:53:26.253Z,989.913
2018-11-13T07:53:42.796Z,989.996
2018-11-13T07:53:59.760Z,989.926
2018-11-13T07:54:16.649Z,989.964
2018-11-13T07:54:33.031Z,989.968
2018-11-13T07:54:49.471Z,989.985
2018-11-13T07:55:05.884Z,989.972
2018-11-13T07:55:22.253Z,989.94
2018-11-13T07:55:38.584Z,989.909
2018-11-13T07:55:54.966Z,989.956
2018-11-13T07:56:11.347Z,989.959
2018-11-13T07:56:27.721Z,989.958
2018-11-13T07:56:44.063Z,989.97
2018-11-13T07:57:00.470Z,989.965
2018-11-13T07:57:16.834Z,989.982
2018-11-13T07:57:33.224Z,989.937
2018-11-13T07:57:49.856Z,990.015
2018-11-13T07:58:06.499Z,990.011
2018-11-13T07:58:22.963Z,990.08
2018-11-13T07:58:39.513Z,989.996
2018-11-13T07:58:55.906Z,989.995
2018-11-13T07:59:12.283Z,990.011
2018-11-13T07:59:28.619Z,990.076
2018-11-13T07:59:44.966Z,990.049
2018-11-13T08:00:01.444Z,989.996
2018-11-13T08:00:17.815Z,990.066
2018-11-13T08:00:34.250Z,990.021
2018-11-13T08:00:50.682Z,990.073
2018-11-13T08:01:07.191Z,990.024
2018-11-13T08:01:23.743Z,990.011
2018-11-13T08:01:40.095Z,990.028
2018-11-13T08:01:56.475Z,990.045
2018-11-13T08:02:12.829Z,990.071
2018-11-13T08:02:29.190Z,990.096
2018-11-13T08:02:45.555Z,990.078
2018-11-13T08:03:01.970Z,990.103
2018-11-13T08:03:18.831Z,990.107
2018-11-13T08:03:35.464Z,990.149
2018-11-13T08:03:51.925Z,990.183
2018-11-13T08:04:08.306Z,990.161
2018-11-13T08:04:24.729Z,990.143
2018-11-13T08:04:41.109Z,990.16
2018-11-13T08:04:57.486Z,990.221
2018-11-13T08:05:13.899Z,990.177
2018-11-13T08:05:30.432Z,990.163
2018-11-13T08:05:47.176Z,990.159
2018-11-13T08:06:03.880Z,990.167
2018-11-13T08:06:20.724Z,990.149
2018-11-13T08:06:37.529Z,990.166
2018-11-13T08:06:54.205Z,990.196
2018-11-13T08:07:10.669Z,990.187
2018-11-13T08:07:27.129Z,990.208
2018-11-13T08:07:43.478Z,990.203
2018-11-13T08:07:59.847Z,990.176
2018-11-13T08:08:16.249Z,990.171
2018-11-13T08:08:32.887Z,990.179
2018-11-13T08:08:49.257Z,990.196
2018-11-13T08:09:05.627Z,990.226
2018-11-13T08:09:22.124Z,990.212
2018-11-13T08:09:38.669Z,990.282
2018-11-13T08:09:55.023Z,990.264
2018-11-13T08:10:11.390Z,990.263
2018-11-13T08:10:27.786Z,990.306
2018-11-13T08:10:44.234Z,990.274
2018-11-13T08:11:00.647Z,990.279
2018-11-13T08:11:17.042Z,990.278
2018-11-13T08:11:33.415Z,990.277
2018-11-13T08:11:49.795Z,990.285
2018-11-13T08:12:06.177Z,990.227
2018-11-13T08:12:22.549Z,990.214
2018-11-13T08:12:39.127Z,990.257
2018-11-13T08:12:56.409Z,990.261
2018-11-13T08:13:14.097Z,990.264
2018-11-13T08:13:31.223Z,990.25
2018-11-13T08:13:48.374Z,990.289
2018-11-13T08:14:04.751Z,990.28
2018-11-13T08:14:21.114Z,990.266
2018-11-13T08:14:37.486Z,990.24
2018-11-13T08:14:53.841Z,990.261
2018-11-13T08:15:10.202Z,990.282
2018-11-13T08:15:26.568Z,990.251
2018-11-13T08:15:43.205Z,990.294
2018-11-13T08:15:59.820Z,990.306
2018-11-13T08:16:16.221Z,990.279
2018-11-13T08:16:32.792Z,990.288
2018-11-13T08:16:49.429Z,990.279
2018-11-13T08:17:05.799Z,990.283
2018-11-13T08:17:22.230Z,990.291
2018-11-13T08:17:38.581Z,990.269
2018-11-13T08:17:54.916Z,990.307
2018-11-13T08:18:11.317Z,990.293
2018-11-13T08:18:27.942Z,990.298
2018-11-13T08:18:44.713Z,990.31
2018-11-13T08:19:01.542Z,990.336
2018-11-13T08:19:17.914Z,990.323
2018-11-13T08:19:34.266Z,990.296
2018-11-13T08:19:50.618Z,990.343
2018-11-13T08:20:06.961Z,990.39
2018-11-13T08:20:23.330Z,990.316
2018-11-13T08:20:39.719Z,990.342
2018-11-13T08:20:56.253Z,990.363
2018-11-13T08:21:13.089Z,990.302
2018-11-13T08:21:29.803Z,990.345
2018-11-13T08:21:46.163Z,990.379
2018-11-13T08:22:02.688Z,990.339
2018-11-13T08:22:19.907Z,990.382
2018-11-13T08:22:36.812Z,990.425
2018-11-13T08:22:53.190Z,990.432
2018-11-13T08:23:09.580Z,990.423
2018-11-13T08:23:25.982Z,990.479
2018-11-13T08:23:42.353Z,990.452
2018-11-13T08:23:58.735Z,990.439
2018-11-13T08:24:15.382Z,990.443
2018-11-13T08:24:31.752Z,990.482
2018-11-13T08:24:48.148Z,990.469
2018-11-13T08:25:04.662Z,990.495
2018-11-13T08:25:21.636Z,990.516
2018-11-13T08:25:38.610Z,990.481
2018-11-13T08:25:55.171Z,990.476
2018-11-13T08:26:11.749Z,990.497
2018-11-13T08:26:28.543Z,990.484
2018-11-13T08:26:44.918Z,990.54
2018-11-13T08:27:01.659Z,990.518
2018-11-13T08:27:18.501Z,990.5
2018-11-13T08:27:34.954Z,990.508
2018-11-13T08:27:51.600Z,990.524
2018-11-13T08:28:08.609Z,990.545
2018-11-13T08:28:25.540Z,990.562
2018-11-13T08:28:42.475Z,990.531
2018-11-13T08:28:59.789Z,990.535
2018-11-13T08:29:17.441Z,990.565
2018-11-13T08:29:34.380Z,990.512
2018-11-13T08:29:51.003Z,990.539
2018-11-13T08:30:07.370Z,990.516
2018-11-13T08:30:23.746Z,990.494
2018-11-13T08:30:40.140Z,990.538
2018-11-13T08:30:56.537Z,990.525
2018-11-13T08:31:12.882Z,990.533
2018-11-13T08:31:29.430Z,990.563
2018-11-13T08:31:46.053Z,990.536
2018-11-13T08:32:02.451Z,990.531
2018-11-13T08:32:18.812Z,990.557
2018-11-13T08:32:35.192Z,990.527
2018-11-13T08:32:51.559Z,990.548
2018-11-13T08:33:08.021Z,990.543
2018-11-13T08:33:24.529Z,990.564
2018-11-13T08:33:40.896Z,990.546
2018-11-13T08:33:57.279Z,990.493
2018-11-13T08:34:13.647Z,990.523
2018-11-13T08:34:30.284Z,990.532
2018-11-13T08:34:46.796Z,990.506
2018-11-13T08:35:03.850Z,990.531
2018-11-13T08:35:20.672Z,990.509
2018-11-13T08:35:37.171Z,990.539
2018-11-13T08:35:53.665Z,990.552
2018-11-13T08:36:10.058Z,990.482
2018-11-13T08:36:26.471Z,990.525
2018-11-13T08:36:42.832Z,990.529
2018-11-13T08:36:59.230Z,990.455
2018-11-13T08:37:15.595Z,990.512
2018-11-13T08:37:31.951Z,990.516
2018-11-13T08:37:48.309Z,990.528
2018-11-13T08:38:04.683Z,990.441
2018-11-13T08:38:21.036Z,990.463
2018-11-13T08:38:37.425Z,990.466
2018-11-13T08:38:53.802Z,990.527
2018-11-13T08:39:10.189Z,990.479
2018-11-13T08:39:26.559Z,990.487
2018-11-13T08:39:43.204Z,990.478
2018-11-13T08:39:59.609Z,990.504
2018-11-13T08:40:15.969Z,990.478
2018-11-13T08:40:32.365Z,990.499
2018-11-13T08:40:48.722Z,990.529
2018-11-13T08:41:05.065Z,990.515
2018-11-13T08:41:21.419Z,990.523
2018-11-13T08:41:37.786Z,990.489
2018-11-13T08:41:54.232Z,990.48
2018-11-13T08:42:10.616Z,990.489
2018-11-13T08:42:26.960Z,990.509
2018-11-13T08:42:44.275Z,990.514
2018-11-13T08:43:00.617Z,990.483
2018-11-13T08:43:17.246Z,990.422
2018-11-13T08:43:33.600Z,990.444
2018-11-13T08:43:50.201Z,990.479
2018-11-13T08:44:07.001Z,990.461
2018-11-13T08:44:23.591Z,990.482
2018-11-13T08:44:39.927Z,990.439
2018-11-13T08:44:56.528Z,990.394
2018-11-13T08:45:12.896Z,990.407
2018-11-13T08:45:29.263Z,990.425
2018-11-13T08:45:45.643Z,990.429
2018-11-13T08:46:01.998Z,990.389
2018-11-13T08:46:18.400Z,990.376
2018-11-13T08:46:34.810Z,990.371
2018-11-13T08:46:51.392Z,990.335
2018-11-13T08:47:07.775Z,990.339
2018-11-13T08:47:24.141Z,990.3
2018-11-13T08:47:40.495Z,990.309
2018-11-13T08:47:56.854Z,990.33
2018-11-13T08:48:13.220Z,990.378
2018-11-13T08:48:29.570Z,990.334
2018-11-13T08:48:45.920Z,990.311
2018-11-13T08:49:02.271Z,990.32
2018-11-13T08:49:18.908Z,990.407
2018-11-13T08:49:35.269Z,990.394
2018-11-13T08:49:51.619Z,990.412
2018-11-13T08:50:08.347Z,990.434
2018-11-13T08:50:25.177Z,990.381
2018-11-13T08:50:41.970Z,990.355
2018-11-13T08:50:58.720Z,990.438
2018-11-13T08:51:15.092Z,990.433
2018-11-13T08:51:31.475Z,990.397
2018-11-13T08:51:47.832Z,990.393
2018-11-13T08:52:04.193Z,990.38
2018-11-13T08:52:20.560Z,990.371
2018-11-13T08:52:36.911Z,990.344
2018-11-13T08:52:53.296Z,990.369
2018-11-13T08:53:09.631Z,990.352
2018-11-13T08:53:25.990Z,990.387
2018-11-13T08:53:42.395Z,990.347
2018-11-13T08:53:58.759Z,990.364
2018-11-13T08:54:15.143Z,990.347
2018-11-13T08:54:31.541Z,990.316
2018-11-13T08:54:47.909Z,990.376
2018-11-13T08:55:04.323Z,990.385
2018-11-13T08:55:20.954Z,990.297
2018-11-13T08:55:37.375Z,990.346
2018-11-13T08:55:53.725Z,990.315
2018-11-13T08:56:10.112Z,990.327
2018-11-13T08:56:26.519Z,990.305
2018-11-13T08:56:42.860Z,990.265
2018-11-13T08:56:59.234Z,990.327
2018-11-13T08:57:15.603Z,990.304
2018-11-13T08:57:32.013Z,990.273
2018-11-13T08:57:48.374Z,990.338
2018-11-13T08:58:04.742Z,990.298
2018-11-13T08:58:21.495Z,990.315
2018-11-13T08:58:38.315Z,990.263
2018-11-13T08:58:55.335Z,990.306
2018-11-13T08:59:12.805Z,990.319
2018-11-13T08:59:30.047Z,990.363
2018-11-13T08:59:46.957Z,990.314
2018-11-13T09:00:03.391Z,990.31
2018-11-13T09:00:19.799Z,990.372
2018-11-13T09:00:36.486Z,990.359
2018-11-13T09:00:52.873Z,990.371
2018-11-13T09:01:09.262Z,990.383
2018-11-13T09:01:25.643Z,990.426
2018-11-13T09:01:42.018Z,990.413
2018-11-13T09:01:58.487Z,990.391
2018-11-13T09:02:14.880Z,990.381
2018-11-13T09:02:31.268Z,990.404
2018-11-13T09:02:47.640Z,990.417
2018-11-13T09:03:04.019Z,990.461
2018-11-13T09:03:20.380Z,990.483
2018-11-13T09:03:36.774Z,990.486
2018-11-13T09:03:53.132Z,990.491
2018-11-13T09:04:09.479Z,990.468
2018-11-13T09:04:25.834Z,990.515
2018-11-13T09:04:42.209Z,990.515
2018-11-13T09:04:58.741Z,990.51
2018-11-13T09:05:15.907Z,990.519
2018-11-13T09:05:32.865Z,990.471
2018-11-13T09:05:49.512Z,990.507
2018-11-13T09:06:05.871Z,990.536
2018-11-13T09:06:22.239Z,990.505
2018-11-13T09:06:38.601Z,990.519
2018-11-13T09:06:54.972Z,990.461
2018-11-13T09:07:11.332Z,990.492
2018-11-13T09:07:27.713Z,990.492
2018-11-13T09:07:44.119Z,990.513
2018-11-13T09:08:00.486Z,990.478
2018-11-13T09:08:16.876Z,990.491
2018-11-13T09:08:33.303Z,990.486
2018-11-13T09:08:49.657Z,990.534
2018-11-13T09:09:06.021Z,990.542
2018-11-13T09:09:22.372Z,990.494
2018-11-13T09:09:38.742Z,990.538
2018-11-13T09:09:55.125Z,990.529
2018-11-13T09:10:11.541Z,990.569
2018-11-13T09:10:28.059Z,990.582
2018-11-13T09:10:44.460Z,990.534
2018-11-13T09:11:01.084Z,990.547
2018-11-13T09:11:17.648Z,990.591
2018-11-13T09:11:34.544Z,990.582
2018-11-13T09:11:51.561Z,990.551
2018-11-13T09:12:08.812Z,990.595
2018-11-13T09:12:25.816Z,990.608
2018-11-13T09:12:42.789Z,990.55
2018-11-13T09:12:59.214Z,990.581
2018-11-13T09:13:15.597Z,990.55
2018-11-13T09:13:32.289Z,990.572
2018-11-13T09:13:48.665Z,990.532
2018-11-13T09:14:05.034Z,990.588
2018-11-13T09:14:21.416Z,990.535
2018-11-13T09:14:37.805Z,990.566
2018-11-13T09:14:54.189Z,990.521
2018-11-13T09:15:10.577Z,990.587
2018-11-13T09:15:26.964Z,990.591
2018-11-13T09:15:43.356Z,990.674
2018-11-13T09:15:59.713Z,990.626
2018-11-13T09:16:16.331Z,990.721
2018-11-13T09:16:32.726Z,990.757
2018-11-13T09:16:49.123Z,990.727
2018-11-13T09:17:05.497Z,990.718
2018-11-13T09:17:21.887Z,990.757
2018-11-13T09:17:38.269Z,990.779
2018-11-13T09:17:54.782Z,990.893
2018-11-13T09:18:11.296Z,990.809
2018-11-13T09:18:27.758Z,990.826
2018-11-13T09:18:44.552Z,990.839
2018-11-13T09:19:01.619Z,990.838
2018-11-13T09:19:19.253Z,990.808
2018-11-13T09:19:37.584Z,990.852
2018-11-13T09:19:55.158Z,990.83
2018-11-13T09:20:11.572Z,990.86
2018-11-13T09:20:27.949Z,990.785
2018-11-13T09:20:44.330Z,990.777
2018-11-13T09:21:00.718Z,990.839
2018-11-13T09:21:17.364Z,990.799
2018-11-13T09:21:33.730Z,990.724
2018-11-13T09:21:50.263Z,990.723
2018-11-13T09:22:06.832Z,990.745
2018-11-13T09:22:23.209Z,990.706
2018-11-13T09:22:39.742Z,990.684
2018-11-13T09:22:56.429Z,990.688
2018-11-13T09:23:12.813Z,990.653
2018-11-13T09:23:29.216Z,990.68
2018-11-13T09:23:45.585Z,990.653
2018-11-13T09:24:02.013Z,990.701
2018-11-13T09:24:18.399Z,990.67
2018-11-13T09:24:36.810Z,990.701
2018-11-13T09:24:55.171Z,990.732
2018-11-13T09:25:13.533Z,990.733
2018-11-13T09:25:31.901Z,990.728
2018-11-13T09:25:50.279Z,990.715
2018-11-13T09:26:08.647Z,990.736
2018-11-13T09:26:27.288Z,990.723
2018-11-13T09:26:45.644Z,990.736
2018-11-13T09:27:04.093Z,990.731
2018-11-13T09:27:22.459Z,990.783
2018-11-13T09:27:40.824Z,990.787
2018-11-13T09:27:59.212Z,990.792
2018-11-13T09:28:17.565Z,990.783
2018-11-13T09:28:36.172Z,990.735
2018-11-13T09:28:54.522Z,990.796
2018-11-13T09:29:12.864Z,990.791
2018-11-13T09:29:31.231Z,990.831
2018-11-13T09:29:49.842Z,990.801
2018-11-13T09:30:09.010Z,990.77
2018-11-13T09:30:28.847Z,990.766
2018-11-13T09:30:49.500Z,990.823
2018-11-13T09:31:09.708Z,990.797
2018-11-13T09:31:29.482Z,990.74
2018-11-13T09:31:48.735Z,990.717
2018-11-13T09:32:07.464Z,990.721
2018-11-13T09:32:25.831Z,990.747
2018-11-13T09:32:44.222Z,990.743
2018-11-13T09:33:02.821Z,990.751
2018-11-13T09:33:21.409Z,990.732
2018-11-13T09:33:40.013Z,990.723
2018-11-13T09:33:58.618Z,990.64
2018-11-13T09:34:17.001Z,990.587
2018-11-13T09:34:35.407Z,990.586
2018-11-13T09:34:53.773Z,990.606
2018-11-13T09:35:12.374Z,990.564
2018-11-13T09:35:31.073Z,990.523
2018-11-13T19:23:32.094Z,994.244
2018-11-13T19:28:35.571Z,994.267
2018-11-13T19:28:51.952Z,994.26
2018-11-13T19:29:08.311Z,994.296
2018-11-13T19:29:24.817Z,994.298
2018-11-13T19:29:41.808Z,994.295
2018-11-13T19:29:58.700Z,994.344
2018-11-13T19:30:15.820Z,994.392
2018-11-13T19:30:32.752Z,994.378
2018-11-13T19:30:49.140Z,994.404
2018-11-13T19:31:05.830Z,994.377
2018-11-13T19:31:22.451Z,994.362
2018-11-13T19:31:38.833Z,994.431
2018-11-13T19:31:55.197Z,994.435
2018-11-13T19:32:11.548Z,994.46
2018-11-13T19:32:27.912Z,994.41
2018-11-13T19:32:44.293Z,994.433
2018-11-13T19:33:00.670Z,994.452
2018-11-13T19:33:17.048Z,994.578
2018-11-13T19:33:33.411Z,994.457
2018-11-13T19:33:50.059Z,994.46
2018-11-13T19:34:06.408Z,994.458
2018-11-13T19:34:22.772Z,994.446
2018-11-13T19:34:39.174Z,994.413
2018-11-13T19:34:55.649Z,994.426
2018-11-13T19:35:12.465Z,994.48
2018-11-13T19:35:29.747Z,994.433
2018-11-13T19:35:47.510Z,994.408
2018-11-13T19:36:05.358Z,994.435
2018-11-13T19:36:23.384Z,994.423
2018-11-13T19:36:40.534Z,994.428
2018-11-13T19:36:57.227Z,994.456
2018-11-13T19:37:13.799Z,994.486
2018-11-13T19:37:30.421Z,994.49
2018-11-13T19:37:46.802Z,994.472
2018-11-13T19:38:03.167Z,994.428
2018-11-13T19:38:19.537Z,994.486
2018-11-13T19:38:36.252Z,994.495
2018-11-13T19:38:53.206Z,994.495
2018-11-13T19:39:09.976Z,994.447
2018-11-13T19:39:26.369Z,994.487
2018-11-13T19:39:42.839Z,994.466
2018-11-13T19:40:00.456Z,994.504
2018-11-13T19:40:18.371Z,994.451
2018-11-13T19:40:34.806Z,994.481
2018-11-13T19:40:51.158Z,994.508
2018-11-13T19:41:07.591Z,994.544
2018-11-13T19:41:23.952Z,994.504
2018-11-13T19:41:40.302Z,994.525
2018-11-13T19:41:56.680Z,994.521
2018-11-13T19:42:13.035Z,994.512
2018-11-13T19:42:29.388Z,994.543
2018-11-13T19:42:45.910Z,994.521
2018-11-13T19:43:02.587Z,994.557
2018-11-13T19:43:19.369Z,994.517
2018-11-13T19:43:35.735Z,994.517
2018-11-13T19:43:52.131Z,994.592
2018-11-13T19:44:08.769Z,994.456
2018-11-13T19:44:25.303Z,994.513
2018-11-13T19:44:42.099Z,994.53
2018-11-13T19:44:58.758Z,994.482
2018-11-13T19:45:15.651Z,994.504
2018-11-13T19:45:32.268Z,994.522
2018-11-13T19:45:48.689Z,994.487
2018-11-13T19:46:05.071Z,994.488
2018-11-13T19:46:21.450Z,994.493
2018-11-13T19:46:37.820Z,994.48
2018-11-13T19:46:54.163Z,994.48
2018-11-13T19:47:10.548Z,994.477
2018-11-13T19:47:26.909Z,994.498
2018-11-13T19:47:43.274Z,994.458
2018-11-13T19:47:59.680Z,994.463
2018-11-13T19:48:16.077Z,994.467
2018-11-13T19:48:32.434Z,994.48
2018-11-13T19:48:48.779Z,994.457
2018-11-13T19:49:05.322Z,994.492
2018-11-13T19:49:23.707Z,994.544
2018-11-13T19:49:41.717Z,994.479
2018-11-13T19:49:58.468Z,994.487
2018-11-13T19:50:14.851Z,994.487
2018-11-13T19:50:31.263Z,994.47
2018-11-13T19:50:47.651Z,994.519
2018-11-13T19:51:04.038Z,994.501
2018-11-13T19:51:20.591Z,994.501
2018-11-13T19:51:37.357Z,994.508
2018-11-13T19:51:54.337Z,994.474
2018-11-13T19:52:10.704Z,994.496
2018-11-13T19:52:27.081Z,994.452
2018-11-13T19:52:43.453Z,994.491
2018-11-13T19:52:59.867Z,994.544
2018-11-13T19:53:16.349Z,994.509
2018-11-13T19:53:32.941Z,994.482
2018-11-13T19:53:49.931Z,994.514
2018-11-13T19:54:06.446Z,994.479
2018-11-13T19:54:23.125Z,994.545
2018-11-13T19:54:39.732Z,994.537
2018-11-13T19:54:56.306Z,994.533
2018-11-13T19:55:12.706Z,994.519
2018-11-13T19:55:29.105Z,994.532
2018-11-13T19:55:45.475Z,994.54
2018-11-13T19:56:01.841Z,994.549
2018-11-13T19:56:18.212Z,994.511
2018-11-13T19:56:34.586Z,994.532
2018-11-13T19:56:50.957Z,994.533
2018-11-13T19:57:07.338Z,994.549
2018-11-13T19:57:23.852Z,994.519
2018-11-13T19:57:40.757Z,994.489
2018-11-13T19:57:58.005Z,994.507
2018-11-13T19:58:14.555Z,994.524
2018-11-13T19:58:30.891Z,994.489
2018-11-13T19:58:47.248Z,994.563
2018-11-13T19:59:03.598Z,994.516
2018-11-13T19:59:19.968Z,994.547
2018-11-13T19:59:36.991Z,994.547
2018-11-13T19:59:53.355Z,994.555
2018-11-13T20:00:09.719Z,994.543
2018-11-13T20:00:26.115Z,994.547
2018-11-13T20:00:42.580Z,994.581
2018-11-13T20:00:59.712Z,994.56
2018-11-13T20:01:16.548Z,994.525
2018-11-13T20:01:32.978Z,994.534
2018-11-13T20:01:49.355Z,994.53
2018-11-13T20:02:05.712Z,994.57
2018-11-13T20:02:22.095Z,994.525
2018-11-13T20:02:38.461Z,994.547
2018-11-13T20:02:54.856Z,994.608
2018-11-13T20:03:11.254Z,994.643
2018-11-13T20:03:27.658Z,994.629
2018-11-13T20:03:44.044Z,994.608
2018-11-13T20:04:00.575Z,994.644
2018-11-13T20:04:17.852Z,994.622
2018-11-13T20:04:34.966Z,994.665
2018-11-13T20:04:52.318Z,994.687
2018-11-13T20:05:09.105Z,994.687
2018-11-13T20:05:25.456Z,994.674
2018-11-13T20:05:41.830Z,994.691
2018-11-13T20:05:58.170Z,994.634
2018-11-13T20:06:14.535Z,994.678
2018-11-13T20:06:30.894Z,994.669
2018-11-13T20:06:47.280Z,994.603
2018-11-13T20:07:03.696Z,994.66
2018-11-13T20:07:20.081Z,994.638
2018-11-13T20:07:36.637Z,994.658
2018-11-13T20:07:53.026Z,994.654
2018-11-13T20:08:09.401Z,994.641
2018-11-13T20:08:25.815Z,994.682
2018-11-13T20:08:42.187Z,994.608
2018-11-13T20:08:58.845Z,994.643
2018-11-13T20:09:15.214Z,994.643
2018-11-13T20:09:31.570Z,994.651
2018-11-13T20:09:47.968Z,994.585
2018-11-13T20:10:04.613Z,994.62
2018-11-13T20:10:21.418Z,994.659
2018-11-13T20:10:38.046Z,994.619
2018-11-13T20:10:54.410Z,994.654
2018-11-13T20:11:10.783Z,994.636
2018-11-13T20:11:27.159Z,994.662
2018-11-13T20:11:43.518Z,994.675
2018-11-13T20:11:59.915Z,994.684
2018-11-13T20:12:16.298Z,994.698
2018-11-13T20:12:32.687Z,994.729
2018-11-13T20:12:49.040Z,994.676
2018-11-13T20:13:05.425Z,994.681
2018-11-13T20:13:21.808Z,994.742
2018-11-13T20:13:38.185Z,994.732
2018-11-13T20:13:54.579Z,994.732
2018-11-13T20:14:10.976Z,994.715
2018-11-13T20:14:27.321Z,994.675
2018-11-13T20:14:43.664Z,994.705
2018-11-13T20:15:00.183Z,994.705
2018-11-13T20:15:16.848Z,994.684
2018-11-13T20:15:33.251Z,994.693
2018-11-13T20:15:49.775Z,994.725
2018-11-13T20:16:06.824Z,994.739
2018-11-13T20:16:23.563Z,994.708
2018-11-13T20:16:39.933Z,994.731
2018-11-13T20:16:56.335Z,994.739
2018-11-13T20:17:12.723Z,994.708
2018-11-13T20:17:29.073Z,994.744
2018-11-13T20:17:45.455Z,994.731
2018-11-13T20:18:01.844Z,994.761
2018-11-13T20:18:18.258Z,994.747
2018-11-13T20:18:34.620Z,994.769
2018-11-13T20:18:50.999Z,994.747
2018-11-13T20:19:07.354Z,994.765
2018-11-13T20:19:23.731Z,994.743
2018-11-13T20:19:40.085Z,994.731
2018-11-13T20:19:56.462Z,994.74
2018-11-13T20:20:12.838Z,994.736
2018-11-13T20:20:33.762Z,994.75
2018-11-13T20:20:50.146Z,994.77
2018-11-13T20:21:06.547Z,994.748
2018-11-13T20:21:22.979Z,994.748
2018-11-13T20:21:39.830Z,994.765
2018-11-13T20:21:56.605Z,994.726
2018-11-13T20:22:12.970Z,994.787
2018-11-13T20:22:30.622Z,994.761
2018-11-13T20:22:47.159Z,994.775
2018-11-13T20:23:03.554Z,994.793
2018-11-13T20:23:20.131Z,994.783
2018-11-13T20:23:37.733Z,994.844
2018-11-13T20:23:54.106Z,994.766
2018-11-13T20:24:10.766Z,994.782
2018-11-13T20:24:27.318Z,994.783
2018-11-13T20:24:44.385Z,994.852
2018-11-13T20:25:01.213Z,994.799
2018-11-13T20:25:17.571Z,994.814
2018-11-13T20:25:34.202Z,994.843
2018-11-13T20:25:50.769Z,994.808
2018-11-13T20:26:07.138Z,994.849
2018-11-13T20:26:23.504Z,994.849
2018-11-13T20:26:39.863Z,994.852
2018-11-13T20:26:56.309Z,994.859
2018-11-13T20:27:12.774Z,994.916
2018-11-13T20:27:29.159Z,994.922
2018-11-13T20:27:45.526Z,994.845
2018-11-13T20:28:01.900Z,994.862
2018-11-13T20:28:18.296Z,994.853
2018-11-13T20:28:34.675Z,994.898
2018-11-13T20:28:51.028Z,994.935
2018-11-13T20:29:07.406Z,994.889
2018-11-13T20:29:23.842Z,994.854
2018-11-13T20:29:40.203Z,994.905
2018-11-13T20:29:56.596Z,994.911
2018-11-13T20:30:12.981Z,994.849
2018-11-13T20:30:29.435Z,994.857
2018-11-13T20:30:46.206Z,994.862
2018-11-13T20:31:03.314Z,994.922
2018-11-13T20:31:20.672Z,994.925
2018-11-13T20:31:37.335Z,994.931
2018-11-13T20:31:53.719Z,994.919
2018-11-13T20:32:10.095Z,994.918
2018-11-13T20:32:26.466Z,994.872
2018-11-13T20:32:42.841Z,994.882
2018-11-13T20:32:59.201Z,994.909
2018-11-13T20:33:15.574Z,994.922
2018-11-13T20:33:31.975Z,994.973
2018-11-13T20:33:48.344Z,994.943
2018-11-13T20:34:04.687Z,994.959
2018-11-13T20:34:21.077Z,994.915
2018-11-13T20:34:37.471Z,994.951
2018-11-13T20:34:53.826Z,994.954
2018-11-13T20:35:10.203Z,994.903
2018-11-13T20:35:26.566Z,994.935
2018-11-13T20:35:42.920Z,994.972
2018-11-13T20:35:59.571Z,994.977
2018-11-13T20:36:15.950Z,994.948
2018-11-13T20:36:32.324Z,994.971
2018-11-13T20:36:48.735Z,995.024
2018-11-13T20:37:05.093Z,995.01
2018-11-13T20:37:21.565Z,995.015
2018-11-13T20:37:38.729Z,994.972
2018-11-13T20:37:55.529Z,994.993
2018-11-13T20:38:11.932Z,994.988
2018-11-13T20:38:28.333Z,994.979
2018-11-13T20:38:44.760Z,995.001
2018-11-13T20:39:01.125Z,994.954
2018-11-13T20:39:17.753Z,995.02
2018-11-13T20:39:34.097Z,995.019
2018-11-13T20:39:50.735Z,994.994
2018-11-13T20:40:07.100Z,995.03
2018-11-13T20:40:23.485Z,994.948
2018-11-13T20:40:39.874Z,994.975
2018-11-13T20:40:56.228Z,994.937
2018-11-13T20:41:12.854Z,994.998
2018-11-13T20:41:29.237Z,994.977
2018-11-13T20:41:45.582Z,994.982
2018-11-13T20:42:01.984Z,995.01
2018-11-13T20:42:18.365Z,995.036
2018-11-13T20:42:34.724Z,994.959
2018-11-13T20:42:51.085Z,995.021
2018-11-13T20:43:07.479Z,994.996
2018-11-13T20:43:24.461Z,995.01
2018-11-13T20:43:41.620Z,995.01
2018-11-13T20:43:58.383Z,995.005
2018-11-13T20:44:14.757Z,995.031
2018-11-13T20:44:31.225Z,995.003
2018-11-13T20:44:48.018Z,994.968
2018-11-13T20:45:05.092Z,995.029
2018-11-13T20:45:21.472Z,994.991
2018-11-13T20:45:37.835Z,994.971
2018-11-13T20:45:54.222Z,994.925
2018-11-13T20:46:10.619Z,994.966
2018-11-13T20:46:27.269Z,994.963
2018-11-13T20:46:43.664Z,994.95
2018-11-13T20:47:00.061Z,994.994
2018-11-13T20:47:16.469Z,994.991
2018-11-13T20:47:32.828Z,995.016
2018-11-13T20:47:49.202Z,995.006
2018-11-13T20:48:05.579Z,994.992
2018-11-13T20:48:21.954Z,995.026
2018-11-13T20:48:38.343Z,994.981
2018-11-13T20:48:54.702Z,994.949
2018-11-13T20:49:11.106Z,994.975
2018-11-13T20:49:27.488Z,994.955
2018-11-13T20:49:43.850Z,994.933
2018-11-13T20:50:00.276Z,995.007
2018-11-13T20:50:16.784Z,995.028
2018-11-13T20:50:33.242Z,994.981
2018-11-13T20:50:49.622Z,995.015
2018-11-13T20:51:05.980Z,994.936
2018-11-13T20:51:22.498Z,994.96
2018-11-13T20:51:39.746Z,994.942
2018-11-13T20:51:56.523Z,994.948
2018-11-13T20:52:12.880Z,994.947
2018-11-13T20:52:29.315Z,994.954
2018-11-13T20:52:45.680Z,994.953
2018-11-13T20:53:02.069Z,995.024
2018-11-13T20:53:18.471Z,995.003
2018-11-13T20:53:34.854Z,995.011
2018-11-13T20:53:51.216Z,995.018
2018-11-13T20:54:07.581Z,994.994
2018-11-13T20:54:24.220Z,994.997
2018-11-13T20:54:40.628Z,995.034
2018-11-13T20:54:56.990Z,994.99
2018-11-13T20:55:13.375Z,995.027
2018-11-13T20:55:29.732Z,994.979
2018-11-13T20:55:46.098Z,994.999
2018-11-13T20:56:02.478Z,995
2018-11-13T20:56:18.839Z,995.082
2018-11-13T20:56:35.214Z,995.056
2018-11-13T20:56:51.881Z,995.021